sensor_id;sensor_type;location;lat;lon;timestamp;temperature;humidity
39033;DHT22;24794;51.982;5.878;2023-04-26T00:00:52;6.20;99.90
39033;DHT22;24794;51.982;5.878;2023-04-26T00:01:54;6.20;99.90
39033;DHT22;24794;51.982;5.878;2023-04-26T00:02:57;6.30;99.90
39033;DHT22;24794;51.982;5.878;2023-04-26T00:03:59;6.20;99.90
39033;DHT22;24794;51.982;5.878;2023-04-26T00:05:00;6.20;99.90
39033;DHT22;24794;51.982;5.878;2023-04-26T00:06:03;6.20;99.90
39033;DHT22;24794;51.982;5.878;2023-04-26T00:07:08;6.20;99.90
39033;DHT22;24794;51.982;5.878;2023-04-26T00:08:08;6.30;99.90
39033;DHT22;24794;51.982;5.878;2023-04-26T00:09:09;6.20;99.90
39033;DHT22;24794;51.982;5.878;2023-04-26T00:10:10;6.20;99.90
39033;DHT22;24794;51.982;5.878;2023-04-26T00:11:11;6.20;99.90
39033;DHT22;24794;51.982;5.878;2023-04-26T00:12:12;6.20;99.90
39033;DHT22;24794;51.982;5.878;2023-04-26T00:13:12;6.20;99.90
39033;DHT22;24794;51.982;5.878;2023-04-26T00:14:13;6.20;99.90
39033;DHT22;24794;51.982;5.878;2023-04-26T00:15:13;6.20;99.90
39033;DHT22;24794;51.982;5.878;2023-04-26T00:16:14;6.20;99.90
39033;DHT22;24794;51.982;5.878;2023-04-26T00:17:15;6.20;99.90
39033;DHT22;24794;51.982;5.878;2023-04-26T00:18:16;6.20;99.90
39033;DHT22;24794;51.982;5.878;2023-04-26T00:19:19;6.10;99.90
39033;DHT22;24794;51.982;5.878;2023-04-26T00:20:20;6.10;99.90
39033;DHT22;24794;51.982;5.878;2023-04-26T00:21:21;6.10;99.90
39033;DHT22;24794;51.982;5.878;2023-04-26T00:22:22;6.10;99.90
39033;DHT22;24794;51.982;5.878;2023-04-26T00:23:23;6.10;99.90
39033;DHT22;24794;51.982;5.878;2023-04-26T00:24:24;6.10;99.90
39033;DHT22;24794;51.982;5.878;2023-04-26T00:25:24;6.00;99.90
39033;DHT22;24794;51.982;5.878;2023-04-26T00:26:25;6.00;99.90
39033;DHT22;24794;51.982;5.878;2023-04-26T00:27:26;5.90;99.90
39033;DHT22;24794;51.982;5.878;2023-04-26T00:28:28;5.90;99.90
39033;DHT22;24794;51.982;5.878;2023-04-26T00:29:28;5.90;99.90
39033;DHT22;24794;51.982;5.878;2023-04-26T00:30:29;5.90;99.90
39033;DHT22;24794;51.982;5.878;2023-04-26T00:31:30;5.80;99.90
39033;DHT22;24794;51.982;5.878;2023-04-26T00:32:30;5.80;99.90
39033;DHT22;24794;51.982;5.878;2023-04-26T00:33:31;5.70;99.90
39033;DHT22;24794;51.982;5.878;2023-04-26T00:34:35;5.70;99.90
39033;DHT22;24794;51.982;5.878;2023-04-26T00:35:36;5.70;99.90
39033;DHT22;24794;51.982;5.878;2023-04-26T00:36:37;5.60;99.90
39033;DHT22;24794;51.982;5.878;2023-04-26T00:37:38;5.60;99.90
39033;DHT22;24794;51.982;5.878;2023-04-26T00:38:38;5.60;99.90
39033;DHT22;24794;51.982;5.878;2023-04-26T00:39:39;5.60;99.90
39033;DHT22;24794;51.982;5.878;2023-04-26T00:40:39;5.60;99.90
39033;DHT22;24794;51.982;5.878;2023-04-26T00:41:40;5.60;99.90
39033;DHT22;24794;51.982;5.878;2023-04-26T00:42:41;5.60;99.90
39033;DHT22;24794;51.982;5.878;2023-04-26T00:43:41;5.60;99.90
39033;DHT22;24794;51.982;5.878;2023-04-26T00:44:42;5.60;99.90
39033;DHT22;24794;51.982;5.878;2023-04-26T00:45:42;5.60;99.90
39033;DHT22;24794;51.982;5.878;2023-04-26T00:46:43;5.50;99.90
39033;DHT22;24794;51.982;5.878;2023-04-26T00:47:44;5.60;99.90
39033;DHT22;24794;51.982;5.878;2023-04-26T00:48:45;5.50;99.90
39033;DHT22;24794;51.982;5.878;2023-04-26T00:49:46;5.50;99.90
39033;DHT22;24794;51.982;5.878;2023-04-26T00:50:47;5.50;99.90
39033;DHT22;24794;51.982;5.878;2023-04-26T00:51:48;5.50;99.90
39033;DHT22;24794;51.982;5.878;2023-04-26T00:52:49;5.50;99.90
39033;DHT22;24794;51.982;5.878;2023-04-26T00:53:50;5.50;99.90
39033;DHT22;24794;51.982;5.878;2023-04-26T00:54:50;5.50;99.90
39033;DHT22;24794;51.982;5.878;2023-04-26T00:55:52;5.50;99.90
39033;DHT22;24794;51.982;5.878;2023-04-26T00:56:53;5.50;99.90
39033;DHT22;24794;51.982;5.878;2023-04-26T00:57:54;5.50;99.90
39033;DHT22;24794;51.982;5.878;2023-04-26T00:58:54;5.50;99.90
39033;DHT22;24794;51.982;5.878;2023-04-26T00:59:55;5.50;99.90
39033;DHT22;24794;51.982;5.878;2023-04-26T01:00:56;5.50;99.90
39033;DHT22;24794;51.982;5.878;2023-04-26T01:01:56;5.50;99.90
39033;DHT22;24794;51.982;5.878;2023-04-26T01:02:57;5.50;99.90
39033;DHT22;24794;51.982;5.878;2023-04-26T01:03:58;5.50;99.90
39033;DHT22;24794;51.982;5.878;2023-04-26T01:04:59;5.50;99.90
39033;DHT22;24794;51.982;5.878;2023-04-26T01:05:59;5.50;99.90
39033;DHT22;24794;51.982;5.878;2023-04-26T01:07:00;5.60;99.90
39033;DHT22;24794;51.982;5.878;2023-04-26T01:08:02;5.60;99.90
39033;DHT22;24794;51.982;5.878;2023-04-26T01:09:04;5.60;99.90
39033;DHT22;24794;51.982;5.878;2023-04-26T01:10:10;5.60;99.90
39033;DHT22;24794;51.982;5.878;2023-04-26T01:11:11;5.70;99.90
39033;DHT22;24794;51.982;5.878;2023-04-26T01:12:12;5.70;99.90
39033;DHT22;24794;51.982;5.878;2023-04-26T01:13:13;5.70;99.90
39033;DHT22;24794;51.982;5.878;2023-04-26T01:14:14;5.70;99.90
39033;DHT22;24794;51.982;5.878;2023-04-26T01:15:15;5.80;99.90
39033;DHT22;24794;51.982;5.878;2023-04-26T01:16:18;5.80;99.90
39033;DHT22;24794;51.982;5.878;2023-04-26T01:17:19;5.80;99.90
39033;DHT22;24794;51.982;5.878;2023-04-26T01:18:20;5.80;99.90
39033;DHT22;24794;51.982;5.878;2023-04-26T01:19:20;5.70;99.90
39033;DHT22;24794;51.982;5.878;2023-04-26T01:20:21;5.80;99.90
39033;DHT22;24794;51.982;5.878;2023-04-26T01:21:23;5.70;99.90
39033;DHT22;24794;51.982;5.878;2023-04-26T01:22:23;5.70;99.90
39033;DHT22;24794;51.982;5.878;2023-04-26T01:23:24;5.60;99.90
39033;DHT22;24794;51.982;5.878;2023-04-26T01:24:25;5.60;99.90
39033;DHT22;24794;51.982;5.878;2023-04-26T01:25:25;5.60;99.90
39033;DHT22;24794;51.982;5.878;2023-04-26T01:26:26;5.50;99.90
39033;DHT22;24794;51.982;5.878;2023-04-26T01:27:27;5.50;99.90
39033;DHT22;24794;51.982;5.878;2023-04-26T01:28:27;5.40;99.90
39033;DHT22;24794;51.982;5.878;2023-04-26T01:29:28;5.40;99.90
39033;DHT22;24794;51.982;5.878;2023-04-26T01:30:29;5.40;99.90
39033;DHT22;24794;51.982;5.878;2023-04-26T01:31:29;5.40;99.90
39033;DHT22;24794;51.982;5.878;2023-04-26T01:32:30;5.40;99.90
39033;DHT22;24794;51.982;5.878;2023-04-26T01:33:31;5.40;99.90
39033;DHT22;24794;51.982;5.878;2023-04-26T01:34:31;5.40;99.90
39033;DHT22;24794;51.982;5.878;2023-04-26T01:35:33;5.40;99.90
39033;DHT22;24794;51.982;5.878;2023-04-26T01:36:34;5.40;99.90
39033;DHT22;24794;51.982;5.878;2023-04-26T01:37:34;5.40;99.90
39033;DHT22;24794;51.982;5.878;2023-04-26T01:38:36;5.40;99.90
39033;DHT22;24794;51.982;5.878;2023-04-26T01:39:36;5.50;99.90
39033;DHT22;24794;51.982;5.878;2023-04-26T01:40:37;5.50;99.90
39033;DHT22;24794;51.982;5.878;2023-04-26T01:41:37;5.50;99.90
39033;DHT22;24794;51.982;5.878;2023-04-26T01:42:38;5.50;99.90
39033;DHT22;24794;51.982;5.878;2023-04-26T01:43:38;5.50;99.90
39033;DHT22;24794;51.982;5.878;2023-04-26T01:44:39;5.50;99.90
39033;DHT22;24794;51.982;5.878;2023-04-26T01:45:40;5.60;99.90
39033;DHT22;24794;51.982;5.878;2023-04-26T01:46:40;5.50;99.90
39033;DHT22;24794;51.982;5.878;2023-04-26T01:47:41;5.60;99.90
39033;DHT22;24794;51.982;5.878;2023-04-26T01:48:41;5.50;99.90
39033;DHT22;24794;51.982;5.878;2023-04-26T01:49:42;5.60;99.90
39033;DHT22;24794;51.982;5.878;2023-04-26T01:50:43;5.60;99.90
39033;DHT22;24794;51.982;5.878;2023-04-26T01:51:43;5.60;99.90
39033;DHT22;24794;51.982;5.878;2023-04-26T01:52:44;5.50;99.90
39033;DHT22;24794;51.982;5.878;2023-04-26T01:53:44;5.50;99.90
39033;DHT22;24794;51.982;5.878;2023-04-26T01:54:45;5.50;99.90
39033;DHT22;24794;51.982;5.878;2023-04-26T01:55:46;5.40;99.90
39033;DHT22;24794;51.982;5.878;2023-04-26T01:56:46;5.40;99.90
39033;DHT22;24794;51.982;5.878;2023-04-26T01:57:47;5.40;99.90
39033;DHT22;24794;51.982;5.878;2023-04-26T01:58:47;5.30;99.90
39033;DHT22;24794;51.982;5.878;2023-04-26T01:59:48;5.30;99.90
39033;DHT22;24794;51.982;5.878;2023-04-26T02:00:48;5.20;99.90
39033;DHT22;24794;51.982;5.878;2023-04-26T02:01:49;5.20;99.90
39033;DHT22;24794;51.982;5.878;2023-04-26T02:02:53;5.20;99.90
39033;DHT22;24794;51.982;5.878;2023-04-26T02:03:54;5.20;99.90
39033;DHT22;24794;51.982;5.878;2023-04-26T02:04:55;5.20;99.90
39033;DHT22;24794;51.982;5.878;2023-04-26T02:05:55;5.20;99.90
39033;DHT22;24794;51.982;5.878;2023-04-26T02:06:56;5.20;99.90
39033;DHT22;24794;51.982;5.878;2023-04-26T02:07:56;5.10;99.90
39033;DHT22;24794;51.982;5.878;2023-04-26T02:08:57;5.20;99.90
39033;DHT22;24794;51.982;5.878;2023-04-26T02:09:57;5.20;99.90
39033;DHT22;24794;51.982;5.878;2023-04-26T02:10:58;5.20;99.90
39033;DHT22;24794;51.982;5.878;2023-04-26T02:11:58;5.20;99.90
39033;DHT22;24794;51.982;5.878;2023-04-26T02:12:59;5.20;99.90
39033;DHT22;24794;51.982;5.878;2023-04-26T02:13:59;5.20;99.90
39033;DHT22;24794;51.982;5.878;2023-04-26T02:15:00;5.20;99.90
39033;DHT22;24794;51.982;5.878;2023-04-26T02:16:01;5.20;99.90
39033;DHT22;24794;51.982;5.878;2023-04-26T02:17:02;5.20;99.90
39033;DHT22;24794;51.982;5.878;2023-04-26T02:18:03;5.20;99.90
39033;DHT22;24794;51.982;5.878;2023-04-26T02:19:04;5.20;99.90
39033;DHT22;24794;51.982;5.878;2023-04-26T02:20:05;5.20;99.90
39033;DHT22;24794;51.982;5.878;2023-04-26T02:21:12;5.30;99.90
39033;DHT22;24794;51.982;5.878;2023-04-26T02:22:13;5.30;99.90
39033;DHT22;24794;51.982;5.878;2023-04-26T02:23:13;5.30;99.90
39033;DHT22;24794;51.982;5.878;2023-04-26T02:24:14;5.30;99.90
39033;DHT22;24794;51.982;5.878;2023-04-26T02:25:15;5.30;99.90
39033;DHT22;24794;51.982;5.878;2023-04-26T02:26:16;5.30;99.90
39033;DHT22;24794;51.982;5.878;2023-04-26T02:27:16;5.30;99.90
39033;DHT22;24794;51.982;5.878;2023-04-26T02:28:17;5.30;99.90
39033;DHT22;24794;51.982;5.878;2023-04-26T02:29:17;5.30;99.90
39033;DHT22;24794;51.982;5.878;2023-04-26T02:30:18;5.20;99.90
39033;DHT22;24794;51.982;5.878;2023-04-26T02:31:18;5.20;99.90
39033;DHT22;24794;51.982;5.878;2023-04-26T02:32:19;5.20;99.90
39033;DHT22;24794;51.982;5.878;2023-04-26T02:33:20;5.20;99.90
39033;DHT22;24794;51.982;5.878;2023-04-26T02:34:20;5.20;99.90
39033;DHT22;24794;51.982;5.878;2023-04-26T02:35:21;5.20;99.90
39033;DHT22;24794;51.982;5.878;2023-04-26T02:36:22;5.20;99.90
39033;DHT22;24794;51.982;5.878;2023-04-26T02:37:22;5.20;99.90
39033;DHT22;24794;51.982;5.878;2023-04-26T02:38:24;5.20;99.90
39033;DHT22;24794;51.982;5.878;2023-04-26T02:39:27;5.20;99.90
39033;DHT22;24794;51.982;5.878;2023-04-26T02:40:28;5.20;99.90
39033;DHT22;24794;51.982;5.878;2023-04-26T02:41:32;5.20;99.90
39033;DHT22;24794;51.982;5.878;2023-04-26T02:42:33;5.20;99.90
39033;DHT22;24794;51.982;5.878;2023-04-26T02:43:33;5.20;99.90
39033;DHT22;24794;51.982;5.878;2023-04-26T02:44:34;5.30;99.90
39033;DHT22;24794;51.982;5.878;2023-04-26T02:45:40;5.30;99.90
39033;DHT22;24794;51.982;5.878;2023-04-26T02:46:42;5.30;99.90
39033;DHT22;24794;51.982;5.878;2023-04-26T02:47:42;5.30;99.90
39033;DHT22;24794;51.982;5.878;2023-04-26T02:48:43;5.30;99.90
39033;DHT22;24794;51.982;5.878;2023-04-26T02:49:43;5.30;99.90
39033;DHT22;24794;51.982;5.878;2023-04-26T02:50:45;5.20;99.90
39033;DHT22;24794;51.982;5.878;2023-04-26T02:51:46;5.30;99.90
39033;DHT22;24794;51.982;5.878;2023-04-26T02:52:46;5.30;99.90
39033;DHT22;24794;51.982;5.878;2023-04-26T02:53:47;5.30;99.90
39033;DHT22;24794;51.982;5.878;2023-04-26T02:54:47;5.30;99.90
39033;DHT22;24794;51.982;5.878;2023-04-26T02:55:48;5.30;99.90
39033;DHT22;24794;51.982;5.878;2023-04-26T02:56:48;5.30;99.90
39033;DHT22;24794;51.982;5.878;2023-04-26T02:57:49;5.30;99.90
39033;DHT22;24794;51.982;5.878;2023-04-26T02:58:49;5.30;99.90
39033;DHT22;24794;51.982;5.878;2023-04-26T02:59:50;5.30;99.90
39033;DHT22;24794;51.982;5.878;2023-04-26T03:00:51;5.30;99.90
39033;DHT22;24794;51.982;5.878;2023-04-26T03:01:53;5.30;99.90
39033;DHT22;24794;51.982;5.878;2023-04-26T03:02:54;5.20;99.90
39033;DHT22;24794;51.982;5.878;2023-04-26T03:03:54;5.20;99.90
39033;DHT22;24794;51.982;5.878;2023-04-26T03:04:55;5.20;99.90
39033;DHT22;24794;51.982;5.878;2023-04-26T03:05:55;5.20;99.90
39033;DHT22;24794;51.982;5.878;2023-04-26T03:06:57;5.20;99.90
39033;DHT22;24794;51.982;5.878;2023-04-26T03:07:57;5.20;99.90
39033;DHT22;24794;51.982;5.878;2023-04-26T03:08:58;5.20;99.90
39033;DHT22;24794;51.982;5.878;2023-04-26T03:09:58;5.10;99.90
39033;DHT22;24794;51.982;5.878;2023-04-26T03:10:59;5.10;99.90
39033;DHT22;24794;51.982;5.878;2023-04-26T03:12:01;5.10;99.90
39033;DHT22;24794;51.982;5.878;2023-04-26T03:13:03;5.10;99.90
39033;DHT22;24794;51.982;5.878;2023-04-26T03:14:04;5.10;99.90
39033;DHT22;24794;51.982;5.878;2023-04-26T03:15:05;5.10;99.90
39033;DHT22;24794;51.982;5.878;2023-04-26T03:16:06;5.10;99.90
39033;DHT22;24794;51.982;5.878;2023-04-26T03:17:06;5.10;99.90
39033;DHT22;24794;51.982;5.878;2023-04-26T03:18:07;5.10;99.90
39033;DHT22;24794;51.982;5.878;2023-04-26T03:19:08;5.10;99.90
39033;DHT22;24794;51.982;5.878;2023-04-26T03:20:09;5.10;99.90
39033;DHT22;24794;51.982;5.878;2023-04-26T03:21:10;5.00;99.90
39033;DHT22;24794;51.982;5.878;2023-04-26T03:22:11;5.10;99.90
39033;DHT22;24794;51.982;5.878;2023-04-26T03:23:15;5.10;99.90
39033;DHT22;24794;51.982;5.878;2023-04-26T03:24:15;5.10;99.90
39033;DHT22;24794;51.982;5.878;2023-04-26T03:25:16;5.10;99.90
39033;DHT22;24794;51.982;5.878;2023-04-26T03:26:17;5.10;99.90
39033;DHT22;24794;51.982;5.878;2023-04-26T03:27:17;5.00;99.90
39033;DHT22;24794;51.982;5.878;2023-04-26T03:28:18;5.00;99.90
39033;DHT22;24794;51.982;5.878;2023-04-26T03:29:19;5.00;99.90
39033;DHT22;24794;51.982;5.878;2023-04-26T03:30:19;5.00;99.90
39033;DHT22;24794;51.982;5.878;2023-04-26T03:31:20;5.00;99.90
39033;DHT22;24794;51.982;5.878;2023-04-26T03:32:22;5.00;99.90
39033;DHT22;24794;51.982;5.878;2023-04-26T03:33:22;4.90;99.90
39033;DHT22;24794;51.982;5.878;2023-04-26T03:34:23;4.90;99.90
39033;DHT22;24794;51.982;5.878;2023-04-26T03:35:23;4.90;99.90
39033;DHT22;24794;51.982;5.878;2023-04-26T03:36:24;5.00;99.90
39033;DHT22;24794;51.982;5.878;2023-04-26T03:37:24;4.90;99.90
39033;DHT22;24794;51.982;5.878;2023-04-26T03:38:25;4.90;99.90
39033;DHT22;24794;51.982;5.878;2023-04-26T03:39:26;5.00;99.90
39033;DHT22;24794;51.982;5.878;2023-04-26T03:40:26;5.00;99.90
39033;DHT22;24794;51.982;5.878;2023-04-26T03:41:27;5.00;99.90
39033;DHT22;24794;51.982;5.878;2023-04-26T03:42:27;5.00;99.90
39033;DHT22;24794;51.982;5.878;2023-04-26T03:43:28;5.00;99.90
39033;DHT22;24794;51.982;5.878;2023-04-26T03:44:28;5.00;99.90
39033;DHT22;24794;51.982;5.878;2023-04-26T03:45:29;5.00;99.90
39033;DHT22;24794;51.982;5.878;2023-04-26T03:46:29;4.90;99.90
39033;DHT22;24794;51.982;5.878;2023-04-26T03:47:30;4.90;99.90
39033;DHT22;24794;51.982;5.878;2023-04-26T03:48:31;4.90;99.90
39033;DHT22;24794;51.982;5.878;2023-04-26T03:49:31;4.90;99.90
39033;DHT22;24794;51.982;5.878;2023-04-26T03:50:32;4.90;99.90
39033;DHT22;24794;51.982;5.878;2023-04-26T03:51:32;4.80;99.90
39033;DHT22;24794;51.982;5.878;2023-04-26T03:52:33;4.90;99.90
39033;DHT22;24794;51.982;5.878;2023-04-26T03:53:33;4.80;99.90
39033;DHT22;24794;51.982;5.878;2023-04-26T03:54:34;4.80;99.90
39033;DHT22;24794;51.982;5.878;2023-04-26T03:55:35;4.80;99.90
39033;DHT22;24794;51.982;5.878;2023-04-26T03:56:36;4.80;99.90
39033;DHT22;24794;51.982;5.878;2023-04-26T03:57:37;4.80;99.90
39033;DHT22;24794;51.982;5.878;2023-04-26T03:58:37;4.80;99.90
39033;DHT22;24794;51.982;5.878;2023-04-26T03:59:38;4.80;99.90
39033;DHT22;24794;51.982;5.878;2023-04-26T04:00:39;4.80;99.90
39033;DHT22;24794;51.982;5.878;2023-04-26T04:01:43;4.80;99.90
39033;DHT22;24794;51.982;5.878;2023-04-26T04:02:43;4.80;99.90
39033;DHT22;24794;51.982;5.878;2023-04-26T04:03:44;4.80;99.90
39033;DHT22;24794;51.982;5.878;2023-04-26T04:04:44;4.80;99.90
39033;DHT22;24794;51.982;5.878;2023-04-26T04:05:45;4.80;99.90
39033;DHT22;24794;51.982;5.878;2023-04-26T04:06:45;4.80;99.90
39033;DHT22;24794;51.982;5.878;2023-04-26T04:07:46;4.80;99.90
39033;DHT22;24794;51.982;5.878;2023-04-26T04:08:47;4.80;99.90
39033;DHT22;24794;51.982;5.878;2023-04-26T04:09:47;4.80;99.90
39033;DHT22;24794;51.982;5.878;2023-04-26T04:10:48;4.90;99.90
39033;DHT22;24794;51.982;5.878;2023-04-26T04:11:49;4.80;99.90
39033;DHT22;24794;51.982;5.878;2023-04-26T04:12:50;4.80;99.90
39033;DHT22;24794;51.982;5.878;2023-04-26T04:13:50;4.80;99.90
39033;DHT22;24794;51.982;5.878;2023-04-26T04:14:51;4.80;99.90
39033;DHT22;24794;51.982;5.878;2023-04-26T04:15:52;4.80;99.90
39033;DHT22;24794;51.982;5.878;2023-04-26T04:16:52;4.80;99.90
39033;DHT22;24794;51.982;5.878;2023-04-26T04:17:53;4.80;99.90
39033;DHT22;24794;51.982;5.878;2023-04-26T04:18:53;4.80;99.90
39033;DHT22;24794;51.982;5.878;2023-04-26T04:19:54;4.80;99.90
39033;DHT22;24794;51.982;5.878;2023-04-26T04:20:55;4.80;99.90
39033;DHT22;24794;51.982;5.878;2023-04-26T04:21:55;4.80;99.90
39033;DHT22;24794;51.982;5.878;2023-04-26T04:22:56;4.80;99.90
39033;DHT22;24794;51.982;5.878;2023-04-26T04:24:01;4.80;99.90
39033;DHT22;24794;51.982;5.878;2023-04-26T04:25:01;4.80;99.90
39033;DHT22;24794;51.982;5.878;2023-04-26T04:26:02;4.80;99.90
39033;DHT22;24794;51.982;5.878;2023-04-26T04:27:03;4.80;99.90
39033;DHT22;24794;51.982;5.878;2023-04-26T04:28:04;4.80;99.90
39033;DHT22;24794;51.982;5.878;2023-04-26T04:29:04;4.80;99.90
39033;DHT22;24794;51.982;5.878;2023-04-26T04:30:08;4.80;99.90
39033;DHT22;24794;51.982;5.878;2023-04-26T04:31:09;4.80;99.90
39033;DHT22;24794;51.982;5.878;2023-04-26T04:32:09;4.80;99.90
39033;DHT22;24794;51.982;5.878;2023-04-26T04:33:10;4.80;99.90
39033;DHT22;24794;51.982;5.878;2023-04-26T04:34:11;4.90;99.90
39033;DHT22;24794;51.982;5.878;2023-04-26T04:35:12;4.90;99.90
39033;DHT22;24794;51.982;5.878;2023-04-26T04:36:13;4.90;99.90
39033;DHT22;24794;51.982;5.878;2023-04-26T04:37:16;4.90;99.90
39033;DHT22;24794;51.982;5.878;2023-04-26T04:38:17;4.90;99.90
39033;DHT22;24794;51.982;5.878;2023-04-26T04:39:17;4.90;99.90
39033;DHT22;24794;51.982;5.878;2023-04-26T04:40:18;4.80;99.90
39033;DHT22;24794;51.982;5.878;2023-04-26T04:41:19;4.80;99.90
39033;DHT22;24794;51.982;5.878;2023-04-26T04:42:21;4.80;99.90
39033;DHT22;24794;51.982;5.878;2023-04-26T04:43:23;4.80;99.90
39033;DHT22;24794;51.982;5.878;2023-04-26T04:44:23;4.80;99.90
39033;DHT22;24794;51.982;5.878;2023-04-26T04:45:26;4.80;99.90
39033;DHT22;24794;51.982;5.878;2023-04-26T04:46:26;4.90;99.90
39033;DHT22;24794;51.982;5.878;2023-04-26T04:47:27;4.80;99.90
39033;DHT22;24794;51.982;5.878;2023-04-26T04:48:27;4.90;99.90
39033;DHT22;24794;51.982;5.878;2023-04-26T04:49:29;4.90;99.90
39033;DHT22;24794;51.982;5.878;2023-04-26T04:50:30;4.90;99.90
39033;DHT22;24794;51.982;5.878;2023-04-26T04:51:31;4.90;99.90
39033;DHT22;24794;51.982;5.878;2023-04-26T04:52:32;4.90;99.90
39033;DHT22;24794;51.982;5.878;2023-04-26T04:53:33;4.90;99.90
39033;DHT22;24794;51.982;5.878;2023-04-26T04:54:33;4.90;99.90
39033;DHT22;24794;51.982;5.878;2023-04-26T04:55:34;4.90;99.90
39033;DHT22;24794;51.982;5.878;2023-04-26T04:56:35;4.90;99.90
39033;DHT22;24794;51.982;5.878;2023-04-26T04:57:36;4.90;99.90
39033;DHT22;24794;51.982;5.878;2023-04-26T04:58:37;4.80;99.90
39033;DHT22;24794;51.982;5.878;2023-04-26T04:59:37;4.80;99.90
39033;DHT22;24794;51.982;5.878;2023-04-26T05:00:38;4.80;99.90
39033;DHT22;24794;51.982;5.878;2023-04-26T05:01:38;4.80;99.90
39033;DHT22;24794;51.982;5.878;2023-04-26T05:02:39;4.80;99.90
39033;DHT22;24794;51.982;5.878;2023-04-26T05:03:40;4.70;99.90
39033;DHT22;24794;51.982;5.878;2023-04-26T05:04:41;4.80;99.90
39033;DHT22;24794;51.982;5.878;2023-04-26T05:05:41;4.80;99.90
39033;DHT22;24794;51.982;5.878;2023-04-26T05:06:42;4.80;99.90
39033;DHT22;24794;51.982;5.878;2023-04-26T05:07:42;4.70;99.90
39033;DHT22;24794;51.982;5.878;2023-04-26T05:08:43;4.80;99.90
39033;DHT22;24794;51.982;5.878;2023-04-26T05:09:43;4.70;99.90
39033;DHT22;24794;51.982;5.878;2023-04-26T05:10:44;4.80;99.90
39033;DHT22;24794;51.982;5.878;2023-04-26T05:11:45;4.80;99.90
39033;DHT22;24794;51.982;5.878;2023-04-26T05:12:46;4.80;99.90
39033;DHT22;24794;51.982;5.878;2023-04-26T05:13:47;4.80;99.90
39033;DHT22;24794;51.982;5.878;2023-04-26T05:14:48;4.80;99.90
39033;DHT22;24794;51.982;5.878;2023-04-26T05:15:48;4.80;99.90
39033;DHT22;24794;51.982;5.878;2023-04-26T05:16:49;4.80;99.90
39033;DHT22;24794;51.982;5.878;2023-04-26T05:17:49;4.80;99.90
39033;DHT22;24794;51.982;5.878;2023-04-26T05:18:50;4.80;99.90
39033;DHT22;24794;51.982;5.878;2023-04-26T05:19:51;4.80;99.90
39033;DHT22;24794;51.982;5.878;2023-04-26T05:20:51;4.80;99.90
39033;DHT22;24794;51.982;5.878;2023-04-26T05:21:52;4.80;99.90
39033;DHT22;24794;51.982;5.878;2023-04-26T05:22:52;4.90;99.90
39033;DHT22;24794;51.982;5.878;2023-04-26T05:23:53;4.80;99.90
39033;DHT22;24794;51.982;5.878;2023-04-26T05:24:54;4.80;99.90
39033;DHT22;24794;51.982;5.878;2023-04-26T05:25:54;4.90;99.90
39033;DHT22;24794;51.982;5.878;2023-04-26T05:27:00;4.90;99.90
39033;DHT22;24794;51.982;5.878;2023-04-26T05:28:00;4.90;99.90
39033;DHT22;24794;51.982;5.878;2023-04-26T05:29:01;4.90;99.90
39033;DHT22;24794;51.982;5.878;2023-04-26T05:30:02;4.90;99.90
39033;DHT22;24794;51.982;5.878;2023-04-26T05:31:02;5.00;99.90
39033;DHT22;24794;51.982;5.878;2023-04-26T05:32:03;5.00;99.90
39033;DHT22;24794;51.982;5.878;2023-04-26T05:33:04;5.00;99.90
39033;DHT22;24794;51.982;5.878;2023-04-26T05:34:05;5.00;99.90
39033;DHT22;24794;51.982;5.878;2023-04-26T05:35:05;5.10;99.90
39033;DHT22;24794;51.982;5.878;2023-04-26T05:36:06;5.10;99.90
39033;DHT22;24794;51.982;5.878;2023-04-26T05:37:08;5.10;99.90
39033;DHT22;24794;51.982;5.878;2023-04-26T05:38:09;5.20;99.90
39033;DHT22;24794;51.982;5.878;2023-04-26T05:39:09;5.20;99.90
39033;DHT22;24794;51.982;5.878;2023-04-26T05:40:12;5.20;99.90
39033;DHT22;24794;51.982;5.878;2023-04-26T05:41:12;5.20;99.90
39033;DHT22;24794;51.982;5.878;2023-04-26T05:42:13;5.20;99.90
39033;DHT22;24794;51.982;5.878;2023-04-26T05:43:14;5.20;99.90
39033;DHT22;24794;51.982;5.878;2023-04-26T05:44:14;5.20;99.90
39033;DHT22;24794;51.982;5.878;2023-04-26T05:45:16;5.20;99.90
39033;DHT22;24794;51.982;5.878;2023-04-26T05:46:16;5.30;99.90
39033;DHT22;24794;51.982;5.878;2023-04-26T05:47:17;5.30;99.90
39033;DHT22;24794;51.982;5.878;2023-04-26T05:48:19;5.30;99.90
39033;DHT22;24794;51.982;5.878;2023-04-26T05:49:20;5.30;99.90
39033;DHT22;24794;51.982;5.878;2023-04-26T05:50:21;5.30;99.90
39033;DHT22;24794;51.982;5.878;2023-04-26T05:51:21;5.30;99.90
39033;DHT22;24794;51.982;5.878;2023-04-26T05:52:22;5.40;99.90
39033;DHT22;24794;51.982;5.878;2023-04-26T05:53:22;5.40;99.90
39033;DHT22;24794;51.982;5.878;2023-04-26T05:54:23;5.40;99.90
39033;DHT22;24794;51.982;5.878;2023-04-26T05:55:23;5.40;99.90
39033;DHT22;24794;51.982;5.878;2023-04-26T05:56:24;5.40;99.90
39033;DHT22;24794;51.982;5.878;2023-04-26T05:57:25;5.50;99.90
39033;DHT22;24794;51.982;5.878;2023-04-26T05:58:26;5.50;99.90
39033;DHT22;24794;51.982;5.878;2023-04-26T05:59:27;5.50;99.90
39033;DHT22;24794;51.982;5.878;2023-04-26T06:00:32;5.50;99.90
39033;DHT22;24794;51.982;5.878;2023-04-26T06:01:33;5.50;99.90
39033;DHT22;24794;51.982;5.878;2023-04-26T06:02:33;5.50;99.90
39033;DHT22;24794;51.982;5.878;2023-04-26T06:03:34;5.60;99.90
39033;DHT22;24794;51.982;5.878;2023-04-26T06:04:35;5.60;99.90
39033;DHT22;24794;51.982;5.878;2023-04-26T06:05:36;5.60;99.90
39033;DHT22;24794;51.982;5.878;2023-04-26T06:06:37;5.70;99.90
39033;DHT22;24794;51.982;5.878;2023-04-26T06:07:38;5.70;99.90
39033;DHT22;24794;51.982;5.878;2023-04-26T06:08:41;5.70;99.90
39033;DHT22;24794;51.982;5.878;2023-04-26T06:09:42;5.70;99.90
39033;DHT22;24794;51.982;5.878;2023-04-26T06:10:42;5.80;99.90
39033;DHT22;24794;51.982;5.878;2023-04-26T06:11:43;5.80;99.90
39033;DHT22;24794;51.982;5.878;2023-04-26T06:12:43;5.80;99.90
39033;DHT22;24794;51.982;5.878;2023-04-26T06:13:44;5.80;99.90
39033;DHT22;24794;51.982;5.878;2023-04-26T06:14:45;5.80;99.90
39033;DHT22;24794;51.982;5.878;2023-04-26T06:15:45;5.90;99.90
39033;DHT22;24794;51.982;5.878;2023-04-26T06:16:46;5.90;99.90
39033;DHT22;24794;51.982;5.878;2023-04-26T06:17:46;5.90;99.90
39033;DHT22;24794;51.982;5.878;2023-04-26T06:18:47;5.90;99.90
39033;DHT22;24794;51.982;5.878;2023-04-26T06:19:47;5.90;99.90
39033;DHT22;24794;51.982;5.878;2023-04-26T06:20:48;5.90;99.90
39033;DHT22;24794;51.982;5.878;2023-04-26T06:21:48;6.00;99.90
39033;DHT22;24794;51.982;5.878;2023-04-26T06:22:51;6.00;99.90
39033;DHT22;24794;51.982;5.878;2023-04-26T06:23:51;6.10;99.90
39033;DHT22;24794;51.982;5.878;2023-04-26T06:24:52;6.10;99.90
39033;DHT22;24794;51.982;5.878;2023-04-26T06:25:53;6.20;99.90
39033;DHT22;24794;51.982;5.878;2023-04-26T06:26:53;6.20;99.90
39033;DHT22;24794;51.982;5.878;2023-04-26T06:27:54;6.20;99.90
39033;DHT22;24794;51.982;5.878;2023-04-26T06:28:54;6.20;99.90
39033;DHT22;24794;51.982;5.878;2023-04-26T06:29:55;6.30;99.90
39033;DHT22;24794;51.982;5.878;2023-04-26T06:30:55;6.40;99.90